createdAt,value
2022-10-22T00:00:50.366Z,980.996
2022-10-22T00:02:50.033Z,980.995
2022-10-22T00:04:50.321Z,980.976
2022-10-22T00:06:50.034Z,980.987
2022-10-22T00:08:50.707Z,980.969
2022-10-22T00:10:50.561Z,980.982
2022-10-22T00:12:49.934Z,980.958
2022-10-22T00:14:50.429Z,980.945
2022-10-22T00:16:50.256Z,980.993
2022-10-22T00:18:49.805Z,980.961
2022-10-22T00:20:50.156Z,980.964
2022-10-22T00:24:50.047Z,980.988
2022-10-22T00:26:50.792Z,981.065
2022-10-22T00:28:50.354Z,981.091
2022-10-22T00:30:49.812Z,981.122
2022-10-22T00:32:50.420Z,981.136
2022-10-22T00:34:50.573Z,981.187
2022-10-22T00:36:50.393Z,981.190
2022-10-22T00:38:50.024Z,981.190
2022-10-22T00:40:50.809Z,981.193
2022-10-22T00:42:50.505Z,981.186
2022-10-22T00:44:50.075Z,981.197
2022-10-22T00:46:49.809Z,981.261
2022-10-22T00:48:50.269Z,981.271
2022-10-22T00:50:50.555Z,981.219
2022-10-22T00:52:50.023Z,981.219
2022-10-22T00:54:50.342Z,981.194
2022-10-22T00:56:50.189Z,981.240
2022-10-22T00:58:50.647Z,981.224
2022-10-22T01:00:50.273Z,981.232
2022-10-22T01:02:49.972Z,981.235
2022-10-22T01:04:50.741Z,981.225
2022-10-22T01:06:50.580Z,981.237
2022-10-22T01:08:50.183Z,981.214
2022-10-22T01:10:50.790Z,981.172
2022-10-22T01:12:50.083Z,981.141
2022-10-22T01:14:50.500Z,981.141
2022-10-22T01:16:50.384Z,981.141
2022-10-22T01:18:49.854Z,981.121
2022-10-22T01:20:50.323Z,981.101
2022-10-22T01:22:50.716Z,981.070
2022-10-22T01:24:50.211Z,981.030
2022-10-22T01:26:50.094Z,981.031
2022-10-22T01:28:50.512Z,981.025
2022-10-22T01:30:49.898Z,980.990
2022-10-22T01:32:50.313Z,980.998
2022-10-22T01:34:50.320Z,980.978
2022-10-22T01:36:50.074Z,980.964
2022-10-22T01:38:50.447Z,980.923
2022-10-22T01:40:49.879Z,980.948
2022-10-22T01:42:50.301Z,980.934
2022-10-22T01:44:50.741Z,980.914
2022-10-22T01:46:50.569Z,980.900
2022-10-22T01:48:49.965Z,980.872
2022-10-22T01:50:50.597Z,980.840
2022-10-22T01:52:50.071Z,980.840
2022-10-22T01:54:50.649Z,980.863
2022-10-22T01:56:50.341Z,980.847
2022-10-22T01:58:49.804Z,980.825
2022-10-22T02:00:50.193Z,980.737
2022-10-22T02:02:50.747Z,980.681
2022-10-22T02:04:50.678Z,980.563
2022-10-22T02:06:50.509Z,980.515
2022-10-22T02:08:50.317Z,980.505
2022-10-22T02:10:49.930Z,980.574
2022-10-22T02:12:50.270Z,980.700
2022-10-22T02:14:50.730Z,980.705
2022-10-22T02:16:50.548Z,980.567
2022-10-22T02:18:50.007Z,980.623
2022-10-22T02:20:50.393Z,980.674
2022-10-22T02:22:50.749Z,980.667
2022-10-22T02:24:50.144Z,980.583
2022-10-22T02:26:49.968Z,980.554
2022-10-22T02:28:50.383Z,980.627
2022-10-22T02:30:50.783Z,980.685
2022-10-22T02:32:50.335Z,980.735
2022-10-22T02:34:50.324Z,980.774
2022-10-22T02:36:50.882Z,980.820
2022-10-22T02:38:50.315Z,980.796
2022-10-22T02:40:49.825Z,980.782
2022-10-22T02:42:50.112Z,980.793
2022-10-22T02:44:50.642Z,980.779
2022-10-22T02:46:50.370Z,980.795
2022-10-22T02:48:50.738Z,980.823
2022-10-22T02:50:50.151Z,980.841
2022-10-22T02:52:50.682Z,980.811
2022-10-22T02:54:50.040Z,980.798
2022-10-22T02:56:50.704Z,980.790
2022-10-22T02:58:50.147Z,980.757
2022-10-22T03:00:50.719Z,980.773
2022-10-22T03:02:50.407Z,980.785
2022-10-22T03:04:50.409Z,980.804
2022-10-22T03:06:50.199Z,980.751
2022-10-22T03:08:50.666Z,980.792
2022-10-22T03:10:50.166Z,980.792
2022-10-22T03:12:50.515Z,980.741
2022-10-22T03:14:49.941Z,980.789
2022-10-22T03:16:50.708Z,980.851
2022-10-22T03:18:50.092Z,980.941
2022-10-22T03:20:50.648Z,980.957
2022-10-22T03:22:49.994Z,980.911
2022-10-22T03:24:50.439Z,980.909
2022-10-22T03:26:50.249Z,980.852
2022-10-22T03:28:50.732Z,980.896
2022-10-22T03:30:50.107Z,980.997
2022-10-22T03:32:50.486Z,981.041
2022-10-22T03:34:50.608Z,981.180
2022-10-22T03:36:49.825Z,981.166
2022-10-22T03:38:50.156Z,981.151
2022-10-22T03:40:50.479Z,981.152
2022-10-22T03:42:49.829Z,981.157
2022-10-22T03:44:50.169Z,981.235
2022-10-22T03:46:50.019Z,981.331
2022-10-22T03:48:50.522Z,981.434
2022-10-22T03:50:49.989Z,981.442
2022-10-22T03:52:50.301Z,981.526
2022-10-22T03:54:50.745Z,981.555
2022-10-22T03:56:50.479Z,981.619
2022-10-22T03:58:49.828Z,981.632
2022-10-22T04:00:50.486Z,981.662
2022-10-22T04:02:50.035Z,981.590
2022-10-22T04:04:49.946Z,981.662
2022-10-22T04:06:50.693Z,981.664
2022-10-22T04:08:50.283Z,981.679
2022-10-22T04:10:49.837Z,981.722
2022-10-22T04:12:50.192Z,981.794
2022-10-22T04:14:50.632Z,981.790
2022-10-22T04:16:50.531Z,981.852
2022-10-22T04:18:49.872Z,981.846
2022-10-22T04:20:50.307Z,981.784
2022-10-22T04:22:50.716Z,981.830
2022-10-22T04:26:49.932Z,981.939
2022-10-22T04:28:50.332Z,981.937
2022-10-22T04:30:50.765Z,981.936
2022-10-22T04:32:50.212Z,981.905
2022-10-22T04:34:50.179Z,981.898
2022-10-22T04:36:49.948Z,981.943
2022-10-22T04:38:50.253Z,982.010
2022-10-22T04:40:50.603Z,981.965
2022-10-22T04:42:49.991Z,981.931
2022-10-22T04:44:50.487Z,981.949
2022-10-22T04:46:50.207Z,981.986
2022-10-22T04:48:50.529Z,982.049
2022-10-22T04:50:50.011Z,982.038
2022-10-22T04:52:50.429Z,982.035
2022-10-22T04:54:49.800Z,982.107
2022-10-22T04:56:50.609Z,982.119
2022-10-22T04:58:49.952Z,982.083
2022-10-22T05:00:50.342Z,982.170
2022-10-22T05:02:50.119Z,982.181
2022-10-22T05:04:49.988Z,982.210
2022-10-22T05:06:50.650Z,982.125
2022-10-22T05:08:50.087Z,982.106
2022-10-22T05:10:50.583Z,982.154
2022-10-22T05:12:49.940Z,982.128
2022-10-22T05:14:50.248Z,982.115
2022-10-22T05:16:49.974Z,982.147
2022-10-22T05:18:50.372Z,982.116
2022-10-22T05:20:49.891Z,982.106
2022-10-22T05:22:50.301Z,982.171
2022-10-22T05:24:49.853Z,982.262
2022-10-22T05:26:50.656Z,982.203
2022-10-22T05:28:50.103Z,982.225
2022-10-22T05:30:50.420Z,982.276
2022-10-22T05:32:49.854Z,982.263
2022-10-22T05:34:49.876Z,982.199
2022-10-22T05:36:50.614Z,982.229
2022-10-22T05:38:50.119Z,982.275
2022-10-22T05:40:50.609Z,982.330
2022-10-22T05:42:50.131Z,982.321
2022-10-22T05:44:50.622Z,982.321
2022-10-22T05:46:50.201Z,982.349
2022-10-22T05:48:50.491Z,982.427
2022-10-22T05:50:49.901Z,982.410
2022-10-22T05:52:50.229Z,982.426
2022-10-22T05:54:50.596Z,982.445
2022-10-22T05:56:50.404Z,982.419
2022-10-22T05:58:50.088Z,982.427
2022-10-22T06:00:49.840Z,982.459
2022-10-22T06:02:50.444Z,982.475
2022-10-22T06:04:50.303Z,982.531
2022-10-22T06:06:50.224Z,982.590
2022-10-22T06:08:50.858Z,982.692
2022-10-22T06:10:50.673Z,982.777
2022-10-22T06:12:50.202Z,982.845
2022-10-22T06:14:50.698Z,982.957
2022-10-22T06:16:50.701Z,983.090
2022-10-22T06:18:50.083Z,983.269
2022-10-22T06:20:50.465Z,983.284
2022-10-22T06:22:49.917Z,983.302
2022-10-22T06:24:50.332Z,983.320
2022-10-22T06:26:50.075Z,983.320
2022-10-22T06:28:50.486Z,983.351
2022-10-22T06:30:49.843Z,983.327
2022-10-22T06:32:50.303Z,983.318
2022-10-22T06:34:50.256Z,983.293
2022-10-22T06:36:50.064Z,983.313
2022-10-22T06:38:50.440Z,983.273
2022-10-22T06:40:49.895Z,983.248
2022-10-22T06:42:50.245Z,983.296
2022-10-22T06:44:50.833Z,983.327
2022-10-22T06:46:50.652Z,983.393
2022-10-22T06:48:50.060Z,983.427
2022-10-22T06:50:50.557Z,983.463
2022-10-22T06:52:49.906Z,983.492
2022-10-22T06:54:50.398Z,983.465
2022-10-22T06:56:50.246Z,983.454
2022-10-22T06:58:49.818Z,983.477
2022-10-22T07:00:50.220Z,983.416
2022-10-22T07:02:50.712Z,983.397
2022-10-22T07:04:50.726Z,983.471
2022-10-22T07:06:50.475Z,983.519
2022-10-22T07:08:50.139Z,983.599
2022-10-22T07:10:50.183Z,983.640
2022-10-22T07:12:50.737Z,983.747
2022-10-22T07:14:50.237Z,983.769
2022-10-22T07:16:50.211Z,983.882
2022-10-22T07:18:50.789Z,983.924
2022-10-22T07:20:50.175Z,984.012
2022-10-22T07:22:50.606Z,983.972
2022-10-22T07:24:50.478Z,983.957
2022-10-22T07:26:50.414Z,983.957
2022-10-22T07:28:49.883Z,983.981
2022-10-22T07:30:50.231Z,983.942
2022-10-22T07:32:50.746Z,983.976
2022-10-22T07:34:49.898Z,983.978
2022-10-22T07:36:50.741Z,983.998
2022-10-22T07:38:50.111Z,984.013
2022-10-22T07:40:50.538Z,984.044
2022-10-22T07:42:49.967Z,984.080
2022-10-22T07:44:50.463Z,984.107
2022-10-22T07:46:50.126Z,984.108
2022-10-22T07:48:50.584Z,984.132
2022-10-22T07:50:49.970Z,984.097
2022-10-22T07:52:52.168Z,984.142
2022-10-22T07:54:50.608Z,984.175
2022-10-22T07:56:50.297Z,984.168
2022-10-22T07:58:50.965Z,984.094
2022-10-22T08:00:50.606Z,984.047
2022-10-22T08:02:50.048Z,984.028
2022-10-22T08:04:50.091Z,983.994
2022-10-22T08:06:49.853Z,984.000
2022-10-22T08:08:50.381Z,984.069
2022-10-22T08:10:49.957Z,984.081
2022-10-22T08:12:50.339Z,984.141
2022-10-22T08:14:49.817Z,984.183
2022-10-22T08:16:50.333Z,984.248
2022-10-22T08:18:50.719Z,984.251
2022-10-22T08:20:50.167Z,984.306
2022-10-22T08:22:50.543Z,984.378
2022-10-22T08:24:50.049Z,984.436
2022-10-22T08:26:49.863Z,984.436
2022-10-22T08:28:50.440Z,984.500
2022-10-22T08:30:49.918Z,984.518
2022-10-22T08:32:54.380Z,984.532
2022-10-22T08:34:50.435Z,984.497
2022-10-22T08:36:50.261Z,984.528
2022-10-22T08:38:50.600Z,984.563
2022-10-22T08:40:50.080Z,984.542
2022-10-22T08:42:50.517Z,984.558
2022-10-22T08:44:49.871Z,984.512
2022-10-22T08:46:50.482Z,984.516
2022-10-22T08:48:49.844Z,984.486
2022-10-22T08:50:50.211Z,984.486
2022-10-22T08:52:50.582Z,984.516
2022-10-22T08:54:49.925Z,984.525
2022-10-22T08:56:50.683Z,984.529
2022-10-22T08:58:50.161Z,984.552
2022-10-22T09:00:50.624Z,984.581
2022-10-22T09:02:50.187Z,984.611
2022-10-22T09:04:50.188Z,984.640
2022-10-22T09:06:54.675Z,984.652
2022-10-22T09:08:50.365Z,984.745
2022-10-22T09:10:50.045Z,984.698
2022-10-22T09:12:50.636Z,984.651
2022-10-22T09:14:50.238Z,984.668
2022-10-22T09:16:50.001Z,984.686
2022-10-22T09:18:50.713Z,984.689
2022-10-22T09:20:50.179Z,984.643
2022-10-22T09:22:50.688Z,984.701
2022-10-22T09:24:50.094Z,984.730
2022-10-22T09:26:49.924Z,984.725
2022-10-22T09:28:50.630Z,984.721
2022-10-22T09:30:50.138Z,984.683
2022-10-22T09:32:50.764Z,984.750
2022-10-22T09:34:49.972Z,984.739
2022-10-22T09:36:49.963Z,984.662
2022-10-22T09:38:50.409Z,984.689
2022-10-22T09:40:49.902Z,984.718
2022-10-22T09:42:50.368Z,984.717
2022-10-22T09:44:49.795Z,984.719
2022-10-22T09:46:50.722Z,984.764
2022-10-22T09:48:50.151Z,984.777
2022-10-22T09:50:50.528Z,984.797
2022-10-22T09:52:49.881Z,984.813
2022-10-22T09:54:50.401Z,984.845
2022-10-22T09:56:50.407Z,984.833
2022-10-22T09:58:50.027Z,984.833
2022-10-22T10:00:50.558Z,984.857
2022-10-22T10:02:50.201Z,984.845
2022-10-22T10:04:50.580Z,984.825
2022-10-22T10:06:50.400Z,984.810
2022-10-22T10:08:51.101Z,984.804
2022-10-22T10:10:50.679Z,984.804
2022-10-22T10:14:49.776Z,984.827
2022-10-22T10:16:50.349Z,984.815
2022-10-22T10:18:50.791Z,984.829
2022-10-22T10:20:50.152Z,984.843
2022-10-22T10:22:50.690Z,984.821
2022-10-22T10:24:50.013Z,984.850
2022-10-22T10:26:50.664Z,984.863
2022-10-22T10:28:50.084Z,984.835
2022-10-22T10:30:50.474Z,984.836
2022-10-22T10:32:49.943Z,984.836
2022-10-22T10:34:49.807Z,984.822
2022-10-22T10:36:50.339Z,984.810
2022-10-22T10:38:49.827Z,984.816
2022-10-22T10:40:50.193Z,984.828
2022-10-22T10:42:50.619Z,984.793
2022-10-22T10:44:50.044Z,984.875
2022-10-22T10:46:49.794Z,984.874
2022-10-22T10:48:50.164Z,984.888
2022-10-22T10:50:50.562Z,984.906
2022-10-22T10:52:49.895Z,984.898
2022-10-22T10:54:50.197Z,984.918
2022-10-22T10:56:50.095Z,984.871
2022-10-22T10:58:50.106Z,984.905
2022-10-22T11:00:50.577Z,984.930
2022-10-22T11:02:50.240Z,984.923
2022-10-22T11:04:50.307Z,984.978
2022-10-22T11:06:50.025Z,984.970
2022-10-22T11:08:50.695Z,984.961
2022-10-22T11:10:50.298Z,984.960
2022-10-22T11:12:49.882Z,984.995
2022-10-22T11:14:50.254Z,984.959
2022-10-22T11:16:50.091Z,984.967
2022-10-22T11:18:50.547Z,984.982
2022-10-22T11:20:50.026Z,984.967
2022-10-22T11:23:19.791Z,984.953
2022-10-22T11:24:50.307Z,984.930
2022-10-22T11:26:49.945Z,984.917
2022-10-22T11:28:50.293Z,984.917
2022-10-22T11:30:50.771Z,984.881
2022-10-22T11:32:50.108Z,984.925
2022-10-22T11:34:50.178Z,984.885
2022-10-22T11:36:49.974Z,984.891
2022-10-22T11:38:50.479Z,984.856
2022-10-22T11:40:49.890Z,984.858
2022-10-22T11:42:50.346Z,984.856
2022-10-22T11:44:49.943Z,984.831
2022-10-22T11:46:50.721Z,984.822
2022-10-22T11:48:50.207Z,984.851
2022-10-22T11:50:50.658Z,984.827
2022-10-22T11:52:50.095Z,984.867
2022-10-22T11:54:50.530Z,984.888
2022-10-22T11:56:50.333Z,984.851
2022-10-22T11:58:55.218Z,984.814
2022-10-22T12:00:50.623Z,984.817
2022-10-22T12:02:50.020Z,984.798
2022-10-22T12:04:50.260Z,984.779
2022-10-22T12:06:50.264Z,984.771
2022-10-22T12:08:50.965Z,984.800
2022-10-22T12:10:50.580Z,984.797
2022-10-22T12:12:50.123Z,984.776
2022-10-22T12:14:50.623Z,984.778
2022-10-22T12:16:58.067Z,984.836
2022-10-22T12:18:50.655Z,984.816
2022-10-22T12:20:49.940Z,984.750
2022-10-22T12:22:50.366Z,984.763
2022-10-22T12:24:50.676Z,984.778
2022-10-22T12:26:50.571Z,984.769
2022-10-22T12:28:49.897Z,984.763
2022-10-22T12:30:50.530Z,984.714
2022-10-22T12:32:49.867Z,984.673
2022-10-22T12:36:50.546Z,984.645
2022-10-22T12:38:49.970Z,984.677
2022-10-22T12:40:50.545Z,984.657
2022-10-22T12:42:50.119Z,984.662
2022-10-22T12:44:50.509Z,984.620
2022-10-22T12:46:57.287Z,984.596
2022-10-22T12:48:49.858Z,984.590
2022-10-22T12:50:50.241Z,984.568
2022-10-22T12:52:50.548Z,984.570
2022-10-22T12:54:49.916Z,984.614
2022-10-22T12:56:50.762Z,984.576
2022-10-22T12:58:50.189Z,984.526
2022-10-22T13:00:50.760Z,984.584
2022-10-22T13:02:50.435Z,984.534
2022-10-22T13:04:50.304Z,984.585
2022-10-22T13:06:50.033Z,984.573
2022-10-22T13:08:50.567Z,984.494
2022-10-22T13:10:50.132Z,984.550
2022-10-22T13:12:50.565Z,984.557
2022-10-22T13:14:49.936Z,984.539
2022-10-22T13:16:50.695Z,984.528
2022-10-22T13:18:50.135Z,984.589
2022-10-22T13:20:50.635Z,984.543
2022-10-22T13:22:50.066Z,984.510
2022-10-22T13:24:50.714Z,984.494
2022-10-22T13:26:50.568Z,984.496
2022-10-22T13:28:50.084Z,984.513
2022-10-22T13:30:50.415Z,984.477
2022-10-22T13:32:49.830Z,984.575
2022-10-22T13:34:49.978Z,984.541
2022-10-22T13:36:49.969Z,984.504
2022-10-22T13:38:50.469Z,984.475
2022-10-22T13:40:49.825Z,984.586
2022-10-22T13:42:50.178Z,984.490
2022-10-22T13:44:50.671Z,984.521
2022-10-22T13:46:50.412Z,984.492
2022-10-22T13:48:49.839Z,984.489
2022-10-22T13:50:50.133Z,984.520
2022-10-22T13:52:50.540Z,984.565
2022-10-22T13:54:49.925Z,984.517
2022-10-22T13:56:50.576Z,984.532
2022-10-22T13:58:49.956Z,984.542
2022-10-22T14:00:50.667Z,984.572
2022-10-22T14:02:50.295Z,984.531
2022-10-22T14:04:50.198Z,984.557
2022-10-22T14:06:49.892Z,984.538
2022-10-22T14:08:50.491Z,984.502
2022-10-22T14:10:50.180Z,984.491
2022-10-22T14:12:53.986Z,984.532
2022-10-22T14:14:50.542Z,984.521
2022-10-22T14:16:50.447Z,984.507
2022-10-22T14:18:49.977Z,984.563
2022-10-22T14:20:50.498Z,984.551
2022-10-22T14:22:50.036Z,984.537
2022-10-22T14:24:50.533Z,984.498
2022-10-22T14:26:50.248Z,984.447
2022-10-22T14:29:11.574Z,984.455
2022-10-22T14:30:50.174Z,984.471
2022-10-22T14:32:50.597Z,984.456
2022-10-22T14:34:50.383Z,984.408
2022-10-22T14:36:50.152Z,984.473
2022-10-22T14:38:50.690Z,984.440
2022-10-22T14:40:50.143Z,984.454
2022-10-22T14:42:50.804Z,984.484
2022-10-22T14:44:50.290Z,984.469
2022-10-22T14:46:50.131Z,984.476
2022-10-22T14:48:50.560Z,984.502
2022-10-22T14:50:50.093Z,984.563
2022-10-22T14:52:50.502Z,984.626
2022-10-22T14:54:49.976Z,984.653
2022-10-22T14:56:49.799Z,984.615
2022-10-22T14:58:50.234Z,984.636
2022-10-22T15:00:50.730Z,984.636
2022-10-22T15:02:50.260Z,984.729
2022-10-22T15:04:50.233Z,984.745
2022-10-22T15:06:50.320Z,984.749
2022-10-22T15:08:51.111Z,984.769
2022-10-22T15:10:50.747Z,984.787
2022-10-22T15:12:50.261Z,984.728
2022-10-22T15:14:50.636Z,984.744
2022-10-22T15:16:50.594Z,984.770
2022-10-22T15:18:50.006Z,984.756
2022-10-22T15:20:50.533Z,984.773
2022-10-22T15:22:50.093Z,984.761
2022-10-22T15:24:50.644Z,984.807
2022-10-22T15:26:50.399Z,984.840
2022-10-22T15:28:49.943Z,984.797
2022-10-22T15:30:50.785Z,984.779
2022-10-22T15:32:50.543Z,984.804
2022-10-22T15:34:50.528Z,984.831
2022-10-22T15:36:50.287Z,984.817
2022-10-22T15:38:50.716Z,984.892
2022-10-22T15:40:50.354Z,984.941
2022-10-22T15:42:49.827Z,984.934
2022-10-22T15:44:50.224Z,984.929
2022-10-22T15:48:50.381Z,985.010
2022-10-22T15:50:49.894Z,985.042
2022-10-22T15:52:50.551Z,985.065
2022-10-22T15:54:49.981Z,985.109
2022-10-22T15:56:49.887Z,985.135
2022-10-22T15:58:50.413Z,985.211
2022-10-22T16:00:50.223Z,985.197
2022-10-22T16:02:49.936Z,985.265
2022-10-22T16:04:50.100Z,985.292
2022-10-22T16:06:49.884Z,985.341
2022-10-22T16:08:50.447Z,985.328
2022-10-22T16:10:49.973Z,985.328
2022-10-22T16:12:50.415Z,985.306
2022-10-22T16:14:50.783Z,985.306
2022-10-22T16:16:50.523Z,985.355
2022-10-22T16:18:50.004Z,985.461
2022-10-22T16:20:50.363Z,985.429
2022-10-22T16:22:49.789Z,985.450
2022-10-22T16:24:50.130Z,985.496
2022-10-22T16:26:49.875Z,985.510
2022-10-22T16:28:50.265Z,985.511
2022-10-22T16:30:50.626Z,985.475
2022-10-22T16:32:49.957Z,985.504
2022-10-22T16:34:50.764Z,985.514
2022-10-22T16:38:50.643Z,985.593
2022-10-22T16:40:49.974Z,985.616
2022-10-22T16:42:50.474Z,985.651
2022-10-22T16:44:49.835Z,985.706
2022-10-22T16:46:50.761Z,985.763
2022-10-22T16:48:50.121Z,985.744
2022-10-22T16:50:50.549Z,985.761
2022-10-22T16:52:50.001Z,985.748
2022-10-22T16:54:50.340Z,985.740
2022-10-22T16:56:50.070Z,985.733
2022-10-22T16:58:50.456Z,985.751
2022-10-22T17:00:50.070Z,985.739
2022-10-22T17:02:50.725Z,985.796
2022-10-22T17:04:50.643Z,985.784
2022-10-22T17:06:50.463Z,985.797
2022-10-22T17:08:50.968Z,985.817
2022-10-22T17:10:50.635Z,985.844
2022-10-22T17:12:50.046Z,985.829
2022-10-22T17:14:50.429Z,985.866
2022-10-22T17:16:50.163Z,985.860
2022-10-22T17:18:50.508Z,985.879
2022-10-22T17:20:49.918Z,985.892
2022-10-22T17:22:50.374Z,985.901
2022-10-22T17:24:49.792Z,985.914
2022-10-22T17:26:50.311Z,985.947
2022-10-22T17:28:49.931Z,985.911
2022-10-22T17:30:50.438Z,985.884
2022-10-22T17:32:49.835Z,985.890
2022-10-22T17:34:50.806Z,985.898
2022-10-22T17:36:50.670Z,985.916
2022-10-22T17:38:50.158Z,985.886
2022-10-22T17:40:50.601Z,985.938
2022-10-22T17:42:49.942Z,985.979
2022-10-22T17:44:50.380Z,985.979
2022-10-22T17:46:50.116Z,986.020
2022-10-22T17:48:50.445Z,986.045
2022-10-22T17:50:58.426Z,986.065
2022-10-22T17:52:50.645Z,986.080
2022-10-22T17:54:50.118Z,986.023
2022-10-22T17:56:49.868Z,985.970
2022-10-22T17:58:50.289Z,985.996
2022-10-22T18:00:50.810Z,986.012
2022-10-22T18:02:50.602Z,985.957
2022-10-22T18:04:50.468Z,985.997
2022-10-22T18:06:50.435Z,986.069
2022-10-22T18:08:50.239Z,986.089
2022-10-22T18:10:50.192Z,986.075
2022-10-22T18:12:50.586Z,986.085
2022-10-22T18:14:50.091Z,986.061
2022-10-22T18:16:50.005Z,986.079
2022-10-22T18:18:50.431Z,986.022
2022-10-22T18:20:50.831Z,986.022
2022-10-22T18:22:50.248Z,986.070
2022-10-22T18:24:50.650Z,986.062
2022-10-22T18:26:50.460Z,986.083
2022-10-22T18:28:49.895Z,986.124
2022-10-22T18:30:50.284Z,986.139
2022-10-22T18:32:49.847Z,986.163
2022-10-22T18:34:50.783Z,986.186
2022-10-22T18:36:50.621Z,986.208
2022-10-22T18:38:49.959Z,986.180
2022-10-22T18:40:50.523Z,986.175
2022-10-22T18:42:49.931Z,986.228
2022-10-22T18:44:50.433Z,986.225
2022-10-22T18:46:50.201Z,986.215
2022-10-22T18:48:50.773Z,986.180
2022-10-22T18:50:57.424Z,986.180
2022-10-22T18:52:50.106Z,986.180
2022-10-22T18:56:50.732Z,986.338
2022-10-22T18:58:52.932Z,986.364
2022-10-22T19:00:50.608Z,986.364
2022-10-22T19:02:50.109Z,986.353
2022-10-22T19:04:50.009Z,986.359
2022-10-22T19:06:50.583Z,986.363
2022-10-22T19:08:51.820Z,986.371
2022-10-22T19:10:50.432Z,986.366
2022-10-22T19:12:49.903Z,986.356
2022-10-22T19:14:50.248Z,986.391
2022-10-22T19:16:49.965Z,986.384
2022-10-22T19:18:50.453Z,986.403
2022-10-22T19:20:49.898Z,986.418
2022-10-22T19:22:50.157Z,986.422
2022-10-22T19:24:50.473Z,986.415
2022-10-22T19:26:50.441Z,986.441
2022-10-22T19:28:50.086Z,986.430
2022-10-22T19:30:50.577Z,986.433
2022-10-22T19:32:49.956Z,986.464
2022-10-22T19:34:49.808Z,986.463
2022-10-22T19:36:50.587Z,986.460
2022-10-22T19:38:49.916Z,986.458
2022-10-22T19:40:50.335Z,986.466
2022-10-22T19:42:50.738Z,986.457
2022-10-22T19:44:50.194Z,986.412
2022-10-22T19:46:50.106Z,986.438
2022-10-22T19:48:50.546Z,986.418
2022-10-22T19:50:50.170Z,986.440
2022-10-22T19:52:50.516Z,986.431
2022-10-22T19:54:50.040Z,986.438
2022-10-22T19:56:50.147Z,986.479
2022-10-22T19:58:49.814Z,986.459
2022-10-22T20:00:50.431Z,986.472
2022-10-22T20:02:50.434Z,986.454
2022-10-22T20:04:50.789Z,986.458
2022-10-22T20:06:50.483Z,986.455
2022-10-22T20:08:56.604Z,986.480
2022-10-22T20:10:50.177Z,986.539
2022-10-22T20:12:50.619Z,986.569
2022-10-22T20:14:50.178Z,986.572
2022-10-22T20:16:49.859Z,986.524
2022-10-22T20:18:50.447Z,986.554
2022-10-22T20:20:50.826Z,986.555
2022-10-22T20:22:50.326Z,986.546
2022-10-22T20:24:50.694Z,986.564
2022-10-22T20:26:50.519Z,986.560
2022-10-22T20:28:49.899Z,986.537
2022-10-22T20:30:50.259Z,986.509
2022-10-22T20:32:50.667Z,986.528
2022-10-22T20:34:50.772Z,986.544
2022-10-22T20:36:50.472Z,986.580
2022-10-22T20:38:49.880Z,986.602
2022-10-22T20:40:50.210Z,986.601
2022-10-22T20:42:50.569Z,986.605
2022-10-22T20:44:49.977Z,986.596
2022-10-22T20:46:50.635Z,986.602
2022-10-22T20:48:50.273Z,986.580
2022-10-22T20:50:50.704Z,986.582
2022-10-22T20:52:50.183Z,986.591
2022-10-22T20:54:50.794Z,986.557
2022-10-22T20:56:50.581Z,986.550
2022-10-22T20:58:50.002Z,986.553
2022-10-22T21:00:50.505Z,986.541
2022-10-22T21:02:50.207Z,986.523
2022-10-22T21:04:50.121Z,986.545
2022-10-22T21:06:50.131Z,986.543
2022-10-22T21:08:50.912Z,986.522
2022-10-22T21:10:50.688Z,986.586
2022-10-22T21:12:50.054Z,986.579
2022-10-22T21:14:50.414Z,986.591
2022-10-22T21:16:50.330Z,986.630
2022-10-22T21:18:50.781Z,986.683
2022-10-22T21:20:50.098Z,986.708
2022-10-22T21:22:50.441Z,986.696
2022-10-22T21:24:50.841Z,986.715
2022-10-22T21:26:49.989Z,986.694
2022-10-22T21:28:50.498Z,986.659
2022-10-22T21:30:50.020Z,986.720
2022-10-22T21:32:50.503Z,986.733
2022-10-22T21:34:50.416Z,986.712
2022-10-22T21:36:50.340Z,986.710
2022-10-22T21:38:49.848Z,986.669
2022-10-22T21:40:50.235Z,986.669
2022-10-22T21:42:50.645Z,986.651
2022-10-22T21:44:50.190Z,986.619
2022-10-22T21:46:50.120Z,986.660
2022-10-22T21:48:50.618Z,986.678
2022-10-22T21:50:50.076Z,986.651
2022-10-22T21:52:50.529Z,986.635
2022-10-22T21:54:49.916Z,986.665
2022-10-22T21:56:49.890Z,986.677
2022-10-22T21:58:50.229Z,986.677
2022-10-22T22:00:50.951Z,986.669
2022-10-22T22:02:50.570Z,986.670
2022-10-22T22:04:50.567Z,986.670
2022-10-22T22:06:50.387Z,986.659
2022-10-22T22:08:50.921Z,986.641
2022-10-22T22:10:50.476Z,986.605
2022-10-22T22:12:49.826Z,986.597
2022-10-22T22:14:50.144Z,986.582
2022-10-22T22:16:49.796Z,986.597
2022-10-22T22:18:50.255Z,986.592
2022-10-22T22:20:49.882Z,986.634
2022-10-22T22:22:50.250Z,986.634
2022-10-22T22:24:50.725Z,986.616
2022-10-22T22:26:50.427Z,986.616
2022-10-22T22:28:49.950Z,986.555
2022-10-22T22:30:50.323Z,986.529
2022-10-22T22:32:50.709Z,986.484
2022-10-22T22:34:50.787Z,986.440
2022-10-22T22:36:50.716Z,986.474
2022-10-22T22:38:50.004Z,986.479
2022-10-22T22:40:50.341Z,986.464
2022-10-22T22:42:50.706Z,986.443
2022-10-22T22:44:50.047Z,986.447
2022-10-22T22:46:49.923Z,986.465
2022-10-22T22:48:50.286Z,986.439
2022-10-22T22:50:49.850Z,986.419
2022-10-22T22:52:50.234Z,986.389
2022-10-22T22:54:50.684Z,986.357
2022-10-22T22:56:50.354Z,986.310
2022-10-22T22:58:50.790Z,986.248
2022-10-22T23:00:50.149Z,986.249
2022-10-22T23:02:50.615Z,986.180
2022-10-22T23:04:50.608Z,986.142
2022-10-22T23:06:50.400Z,986.147
2022-10-22T23:08:50.952Z,986.145
2022-10-22T23:10:50.537Z,986.141
2022-10-22T23:12:49.842Z,986.134
2022-10-22T23:14:50.177Z,986.086
2022-10-22T23:16:49.999Z,986.071
2022-10-22T23:18:50.309Z,986.093
2022-10-22T23:20:49.894Z,986.066
2022-10-22T23:22:50.367Z,986.103
2022-10-22T23:24:50.784Z,986.090
2022-10-22T23:26:50.380Z,986.079
2022-10-22T23:28:49.877Z,986.040
2022-10-22T23:30:50.210Z,986.099
2022-10-22T23:32:50.605Z,986.088
2022-10-22T23:34:50.562Z,986.069
2022-10-22T23:36:50.424Z,986.114
2022-10-22T23:38:50.748Z,986.148
2022-10-22T23:40:50.081Z,986.141
2022-10-22T23:42:50.505Z,986.157
2022-10-22T23:44:49.874Z,986.203
2022-10-22T23:46:50.641Z,986.207
2022-10-22T23:48:50.040Z,986.224
2022-10-22T23:50:50.768Z,986.314
2022-10-22T23:52:50.149Z,986.329
2022-10-22T23:54:50.584Z,986.375
2022-10-22T23:56:50.443Z,986.375
2022-10-22T23:58:49.907Z,986.375
